createdAt,value
2019-01-30T00:00:46.554Z,64.23
2019-01-30T00:01:51.077Z,64.51
2019-01-30T00:02:56.163Z,64.39
2019-01-30T00:04:00.929Z,64.00
2019-01-30T00:05:05.852Z,64.31
2019-01-30T00:06:11.052Z,64.06
2019-01-30T00:07:15.528Z,64.30
2019-01-30T00:08:20.307Z,64.15
2019-01-30T00:09:25.582Z,64.23
2019-01-30T00:10:30.563Z,64.38
2019-01-30T00:11:35.075Z,64.13
2019-01-30T00:12:40.224Z,64.50
2019-01-30T00:13:45.388Z,64.44
2019-01-30T00:14:50.730Z,64.52
2019-01-30T00:15:56.779Z,64.53
2019-01-30T00:17:02.015Z,64.18
2019-01-30T00:18:06.871Z,63.84
2019-01-30T00:19:11.749Z,64.46
2019-01-30T00:20:16.513Z,64.28
2019-01-30T00:21:21.303Z,64.48
2019-01-30T00:22:26.463Z,63.94
2019-01-30T00:23:30.977Z,64.41
2019-01-30T00:24:36.389Z,64.71
2019-01-30T00:25:41.166Z,64.46
2019-01-30T00:26:45.970Z,64.11
2019-01-30T00:27:50.727Z,64.03
2019-01-30T00:28:55.463Z,64.10
2019-01-30T00:30:04.046Z,64.39
2019-01-30T00:31:07.128Z,64.61
2019-01-30T00:32:14.983Z,64.69
2019-01-30T00:33:19.506Z,64.53
2019-01-30T00:34:24.593Z,64.57
2019-01-30T00:35:30.077Z,63.87
2019-01-30T00:36:34.810Z,64.17
2019-01-30T00:37:40.315Z,64.17
2019-01-30T00:38:45.103Z,64.73
2019-01-30T00:39:50.329Z,65.10
2019-01-30T00:40:55.510Z,64.93
2019-01-30T00:42:00.578Z,64.55
2019-01-30T00:43:05.379Z,64.97
2019-01-30T00:44:10.695Z,64.97
2019-01-30T00:45:15.874Z,64.78
2019-01-30T00:46:20.676Z,64.95
2019-01-30T00:47:25.759Z,64.84
2019-01-30T00:48:30.257Z,65.01
2019-01-30T00:49:35.030Z,65.26
2019-01-30T00:50:39.520Z,64.98
2019-01-30T00:51:44.339Z,64.82
2019-01-30T00:52:49.442Z,65.39
2019-01-30T00:53:54.609Z,64.85
2019-01-30T00:54:59.470Z,65.06
2019-01-30T00:56:04.226Z,64.99
2019-01-30T00:57:09.056Z,64.92
2019-01-30T00:58:14.152Z,65.03
2019-01-30T00:59:19.348Z,65.19
2019-01-30T01:00:24.154Z,65.22
2019-01-30T01:01:28.962Z,65.17
2019-01-30T01:02:33.728Z,64.62
2019-01-30T01:03:39.216Z,64.25
2019-01-30T01:04:44.355Z,64.44
2019-01-30T01:05:49.137Z,64.56
2019-01-30T01:06:53.910Z,64.58
2019-01-30T01:07:58.657Z,64.82
2019-01-30T01:09:04.237Z,65.19
2019-01-30T01:10:11.278Z,65.04
2019-01-30T01:11:15.863Z,64.67
2019-01-30T01:12:20.821Z,64.39
2019-01-30T01:13:25.693Z,63.97
2019-01-30T01:14:30.470Z,64.14
2019-01-30T01:15:35.564Z,64.32
2019-01-30T01:16:42.498Z,64.21
2019-01-30T01:17:46.791Z,63.94
2019-01-30T01:18:51.560Z,64.20
2019-01-30T01:19:56.069Z,63.97
2019-01-30T01:21:00.659Z,64.38
2019-01-30T01:22:05.480Z,64.55
2019-01-30T01:23:10.238Z,64.50
2019-01-30T01:24:15.660Z,64.17
2019-01-30T01:25:20.467Z,64.09
2019-01-30T01:26:25.338Z,64.29
2019-01-30T01:27:30.840Z,64.29
2019-01-30T01:28:35.676Z,64.32
2019-01-30T01:29:40.560Z,64.21
2019-01-30T01:30:45.718Z,64.37
2019-01-30T01:31:50.476Z,63.80
2019-01-30T01:32:55.276Z,64.02
2019-01-30T01:34:00.365Z,64.05
2019-01-30T01:35:05.770Z,64.32
2019-01-30T01:36:10.559Z,63.72
2019-01-30T01:37:15.653Z,64.01
2019-01-30T01:38:20.135Z,64.05
2019-01-30T01:39:24.619Z,64.06
2019-01-30T01:40:29.703Z,63.79
2019-01-30T01:41:34.610Z,63.34
2019-01-30T01:42:39.357Z,63.27
2019-01-30T01:43:44.157Z,63.31
2019-01-30T01:44:49.005Z,63.67
2019-01-30T01:45:53.838Z,63.82
2019-01-30T01:46:58.332Z,63.76
2019-01-30T01:48:03.110Z,63.38
2019-01-30T01:49:07.941Z,63.59
2019-01-30T01:50:14.500Z,63.33
2019-01-30T01:51:19.380Z,63.41
2019-01-30T01:52:24.163Z,63.69
2019-01-30T01:53:29.313Z,63.09
2019-01-30T01:54:34.622Z,62.94
2019-01-30T01:55:39.530Z,63.11
2019-01-30T01:56:44.786Z,62.80
2019-01-30T01:57:49.931Z,62.81
2019-01-30T01:58:54.787Z,63.04
2019-01-30T02:00:00.329Z,63.21
2019-01-30T02:01:04.769Z,62.96
2019-01-30T02:02:09.520Z,63.21
2019-01-30T02:03:14.302Z,62.97
2019-01-30T02:04:19.594Z,62.88
2019-01-30T02:05:24.626Z,62.61
2019-01-30T02:06:29.697Z,62.79
2019-01-30T02:07:34.920Z,62.60
2019-01-30T02:08:39.707Z,62.84
2019-01-30T02:09:44.475Z,62.70
2019-01-30T02:10:49.560Z,63.09
2019-01-30T02:11:54.517Z,62.68
2019-01-30T02:12:59.646Z,62.92
2019-01-30T02:14:04.744Z,62.71
2019-01-30T02:15:11.656Z,62.34
2019-01-30T02:16:16.546Z,62.35
2019-01-30T02:17:21.809Z,62.73
2019-01-30T02:18:27.426Z,62.52
2019-01-30T02:19:32.220Z,62.75
2019-01-30T02:20:36.983Z,61.77
2019-01-30T02:21:41.744Z,62.17
2019-01-30T02:22:46.517Z,62.34
2019-01-30T02:23:51.009Z,62.39
2019-01-30T02:24:56.437Z,62.35
2019-01-30T02:26:02.285Z,62.08
2019-01-30T02:27:07.428Z,62.35
2019-01-30T02:28:12.575Z,62.45
2019-01-30T02:29:18.309Z,62.23
2019-01-30T02:30:25.194Z,61.94
2019-01-30T02:31:29.981Z,62.23
2019-01-30T02:32:34.565Z,62.48
2019-01-30T02:33:39.772Z,62.35
2019-01-30T02:34:44.939Z,62.72
2019-01-30T02:35:49.417Z,62.59
2019-01-30T02:36:58.073Z,62.40
2019-01-30T02:38:02.849Z,62.88
2019-01-30T02:39:08.633Z,62.53
2019-01-30T02:40:15.123Z,62.38
2019-01-30T02:41:22.299Z,62.37
2019-01-30T02:42:27.080Z,62.50
2019-01-30T02:43:32.232Z,62.46
2019-01-30T02:44:36.848Z,62.81
2019-01-30T02:45:42.039Z,62.81
2019-01-30T02:46:47.022Z,62.93
2019-01-30T02:47:52.137Z,63.18
2019-01-30T02:48:56.921Z,63.48
2019-01-30T02:50:01.683Z,63.56
2019-01-30T02:51:06.452Z,63.45
2019-01-30T02:52:11.212Z,62.98
2019-01-30T02:53:15.695Z,63.01
2019-01-30T02:54:20.467Z,63.47
2019-01-30T02:55:25.217Z,63.68
2019-01-30T02:56:30.280Z,63.43
2019-01-30T02:57:35.037Z,63.53
2019-01-30T02:58:40.213Z,63.75
2019-01-30T02:59:45.109Z,63.65
2019-01-30T03:00:58.845Z,63.75
2019-01-30T03:02:33.277Z,63.16
2019-01-30T03:03:38.497Z,63.10
2019-01-30T03:04:43.663Z,63.46
2019-01-30T03:05:48.538Z,63.44
2019-01-30T03:06:53.037Z,63.37
2019-01-30T03:07:57.937Z,63.51
2019-01-30T03:09:04.276Z,63.86
2019-01-30T03:10:11.473Z,63.57
2019-01-30T03:11:16.212Z,63.31
2019-01-30T03:12:21.376Z,63.13
2019-01-30T03:13:25.864Z,63.51
2019-01-30T03:14:31.365Z,63.65
2019-01-30T03:15:36.155Z,63.44
2019-01-30T03:16:41.691Z,63.38
2019-01-30T03:17:46.451Z,63.27
2019-01-30T03:18:54.413Z,63.31
2019-01-30T03:19:59.385Z,63.30
2019-01-30T03:21:04.180Z,63.31
2019-01-30T03:22:08.677Z,63.57
2019-01-30T03:23:14.113Z,63.44
2019-01-30T03:24:19.194Z,63.77
2019-01-30T03:25:25.046Z,63.82
2019-01-30T03:26:29.817Z,63.21
2019-01-30T03:27:34.969Z,62.98
2019-01-30T03:28:40.083Z,62.94
2019-01-30T03:29:44.838Z,62.64
2019-01-30T03:30:49.926Z,62.54
2019-01-30T03:31:54.729Z,62.44
2019-01-30T03:32:59.574Z,62.35
2019-01-30T03:34:04.634Z,62.55
2019-01-30T03:35:09.129Z,62.68
2019-01-30T03:36:14.272Z,62.64
2019-01-30T03:37:19.356Z,62.47
2019-01-30T03:38:24.444Z,62.71
2019-01-30T03:39:29.589Z,62.48
2019-01-30T03:40:34.337Z,62.53
2019-01-30T03:41:39.566Z,62.13
2019-01-30T03:42:44.967Z,62.46
2019-01-30T03:43:50.132Z,62.34
2019-01-30T03:44:55.291Z,62.26
2019-01-30T03:46:00.345Z,62.35
2019-01-30T03:47:05.867Z,61.91
2019-01-30T03:48:10.995Z,62.09
2019-01-30T03:49:16.143Z,62.10
2019-01-30T03:50:21.031Z,61.85
2019-01-30T03:51:25.866Z,61.89
2019-01-30T03:52:31.038Z,61.73
2019-01-30T03:53:35.759Z,61.91
2019-01-30T03:54:40.856Z,61.83
2019-01-30T03:55:46.373Z,61.30
2019-01-30T03:56:51.164Z,61.54
2019-01-30T03:57:56.265Z,61.66
2019-01-30T03:59:01.030Z,61.75
2019-01-30T04:00:07.214Z,61.31
2019-01-30T04:01:11.726Z,60.67
2019-01-30T04:02:16.317Z,60.65
2019-01-30T04:03:21.081Z,60.74
2019-01-30T04:04:25.828Z,60.52
2019-01-30T04:05:30.734Z,60.52
2019-01-30T04:06:35.553Z,60.67
2019-01-30T04:07:40.321Z,60.92
2019-01-30T04:08:45.481Z,61.20
2019-01-30T04:09:50.339Z,61.06
2019-01-30T04:10:58.661Z,60.68
2019-01-30T04:12:03.678Z,60.79
2019-01-30T04:13:08.449Z,60.18
2019-01-30T04:14:13.562Z,60.16
2019-01-30T04:15:18.175Z,60.10
2019-01-30T04:16:23.339Z,60.15
2019-01-30T04:17:28.874Z,60.06
2019-01-30T04:18:34.179Z,60.50
2019-01-30T04:19:39.339Z,60.55
2019-01-30T04:20:44.122Z,60.22
2019-01-30T04:21:48.915Z,60.23
2019-01-30T04:22:53.685Z,60.43
2019-01-30T04:23:58.485Z,59.97
2019-01-30T04:25:03.678Z,59.82
2019-01-30T04:26:08.539Z,59.93
2019-01-30T04:27:13.605Z,60.19
2019-01-30T04:28:21.465Z,60.21
2019-01-30T04:29:26.617Z,60.17
2019-01-30T04:30:32.074Z,60.81
2019-01-30T04:31:38.543Z,60.94
2019-01-30T04:32:43.713Z,60.23
2019-01-30T04:33:48.693Z,60.01
2019-01-30T04:34:53.652Z,59.80
2019-01-30T04:35:59.099Z,60.22
2019-01-30T04:37:04.245Z,60.02
2019-01-30T04:38:09.041Z,60.21
2019-01-30T04:39:14.263Z,60.25
2019-01-30T04:40:20.097Z,60.48
2019-01-30T04:41:24.871Z,60.34
2019-01-30T04:42:29.350Z,60.19
2019-01-30T04:43:34.910Z,60.14
2019-01-30T04:44:39.750Z,60.46
2019-01-30T04:45:44.848Z,60.60
2019-01-30T04:46:50.399Z,60.07
2019-01-30T04:47:55.866Z,60.13
2019-01-30T04:49:00.640Z,59.92
2019-01-30T04:50:05.983Z,59.94
2019-01-30T04:51:11.108Z,59.75
2019-01-30T04:52:15.635Z,60.16
2019-01-30T04:53:20.882Z,60.68
2019-01-30T04:54:26.084Z,59.79
2019-01-30T04:55:30.667Z,60.16
2019-01-30T04:56:35.816Z,60.36
2019-01-30T04:57:41.126Z,60.38
2019-01-30T04:58:45.754Z,60.15
2019-01-30T04:59:50.529Z,60.13
2019-01-30T05:00:55.281Z,60.52
2019-01-30T05:02:00.079Z,60.47
2019-01-30T05:03:04.945Z,60.71
2019-01-30T05:04:09.777Z,60.64
2019-01-30T05:05:15.323Z,60.09
2019-01-30T05:06:22.536Z,60.14
2019-01-30T05:07:27.305Z,60.29
2019-01-30T05:08:32.069Z,60.16
2019-01-30T05:09:37.934Z,60.63
2019-01-30T05:10:42.702Z,60.60
2019-01-30T05:11:47.866Z,60.59
2019-01-30T05:12:52.944Z,60.28
2019-01-30T05:13:58.115Z,60.31
2019-01-30T05:15:02.721Z,60.34
2019-01-30T05:16:07.946Z,60.22
2019-01-30T05:17:13.085Z,60.26
2019-01-30T05:18:18.285Z,59.99
2019-01-30T05:19:22.762Z,60.11
2019-01-30T05:20:27.907Z,60.37
2019-01-30T05:21:33.387Z,60.44
2019-01-30T05:22:38.504Z,60.60
2019-01-30T05:23:43.623Z,60.00
2019-01-30T05:24:48.378Z,60.43
2019-01-30T05:25:53.181Z,60.36
2019-01-30T05:26:58.603Z,60.63
2019-01-30T05:28:03.482Z,60.22
2019-01-30T05:29:08.323Z,60.61
2019-01-30T05:30:32.702Z,60.59
2019-01-30T05:31:37.184Z,60.35
2019-01-30T05:32:42.247Z,60.32
2019-01-30T05:33:47.718Z,60.28
2019-01-30T05:34:52.528Z,60.65
2019-01-30T05:35:57.384Z,60.54
2019-01-30T05:37:02.846Z,60.87
2019-01-30T05:38:07.589Z,60.99
2019-01-30T05:39:12.682Z,61.25
2019-01-30T05:40:17.944Z,60.80
2019-01-30T05:41:22.769Z,60.84
2019-01-30T05:42:27.913Z,60.67
2019-01-30T05:43:33.066Z,60.54
2019-01-30T05:44:38.507Z,60.22
2019-01-30T05:45:43.821Z,60.56
2019-01-30T05:46:48.948Z,60.47
2019-01-30T05:47:54.155Z,60.71
2019-01-30T05:48:58.928Z,60.31
2019-01-30T05:50:03.389Z,60.43
2019-01-30T05:51:07.877Z,60.23
2019-01-30T05:52:12.913Z,60.56
2019-01-30T05:53:17.781Z,60.37
2019-01-30T05:54:23.256Z,60.04
2019-01-30T05:55:27.992Z,60.06
2019-01-30T05:56:32.947Z,59.66
2019-01-30T05:57:37.716Z,59.64
2019-01-30T05:58:42.513Z,59.61
2019-01-30T05:59:47.471Z,60.03
2019-01-30T06:00:51.999Z,59.93
2019-01-30T06:01:57.205Z,60.18
2019-01-30T06:03:02.438Z,60.36
2019-01-30T06:04:07.025Z,60.05
2019-01-30T06:05:11.845Z,59.90
2019-01-30T06:06:17.019Z,59.89
2019-01-30T06:07:21.793Z,59.68
2019-01-30T06:08:26.549Z,59.97
2019-01-30T06:09:31.308Z,59.58
2019-01-30T06:10:36.051Z,59.65
2019-01-30T06:11:40.553Z,59.67
2019-01-30T06:12:46.147Z,59.63
2019-01-30T06:13:51.388Z,59.83
2019-01-30T06:14:56.180Z,59.97
2019-01-30T06:16:01.288Z,60.50
2019-01-30T06:17:06.830Z,59.71
2019-01-30T06:18:11.997Z,59.59
2019-01-30T06:19:16.764Z,59.87
2019-01-30T06:20:26.605Z,59.71
2019-01-30T06:21:31.470Z,59.73
2019-01-30T06:22:35.950Z,60.43
2019-01-30T06:23:41.192Z,60.48
2019-01-30T06:24:46.745Z,60.69
2019-01-30T06:25:51.998Z,60.74
2019-01-30T06:26:57.513Z,60.49
2019-01-30T06:28:03.000Z,60.17
2019-01-30T06:29:07.776Z,60.18
2019-01-30T06:30:14.154Z,60.54
2019-01-30T06:31:19.352Z,60.09
2019-01-30T06:32:24.138Z,60.53
2019-01-30T06:33:29.249Z,59.88
2019-01-30T06:34:34.017Z,59.71
2019-01-30T06:35:39.300Z,59.72
2019-01-30T06:36:44.270Z,60.02
2019-01-30T06:37:49.387Z,59.56
2019-01-30T06:38:54.908Z,59.74
2019-01-30T06:40:00.738Z,59.72
2019-01-30T06:41:05.485Z,59.43
2019-01-30T06:42:10.776Z,59.52
2019-01-30T06:43:15.543Z,59.78
2019-01-30T06:44:20.693Z,59.88
2019-01-30T06:45:26.140Z,59.84
2019-01-30T06:46:31.425Z,59.63
2019-01-30T06:47:35.882Z,59.66
2019-01-30T06:48:40.670Z,59.93
2019-01-30T06:49:46.008Z,59.57
2019-01-30T06:50:51.173Z,59.50
2019-01-30T06:51:57.794Z,59.71
2019-01-30T06:53:03.314Z,59.53
2019-01-30T06:54:08.343Z,60.53
2019-01-30T06:55:13.097Z,59.78
2019-01-30T06:56:18.898Z,59.33
2019-01-30T06:57:23.405Z,59.24
2019-01-30T06:58:28.512Z,59.31
2019-01-30T06:59:34.385Z,59.78
2019-01-30T07:00:38.866Z,60.06
2019-01-30T07:01:43.706Z,60.03
2019-01-30T07:02:49.111Z,59.81
2019-01-30T07:03:54.247Z,59.53
2019-01-30T07:04:59.079Z,59.51
2019-01-30T07:06:04.131Z,59.75
2019-01-30T07:07:08.611Z,60.25
2019-01-30T07:08:13.456Z,60.92
2019-01-30T07:09:18.578Z,61.99
2019-01-30T07:10:28.080Z,63.01
2019-01-30T07:11:33.193Z,65.21
2019-01-30T07:12:37.972Z,68.02
2019-01-30T07:13:42.909Z,71.63
2019-01-30T07:14:48.074Z,73.03
2019-01-30T07:15:52.933Z,75.72
2019-01-30T07:16:58.041Z,76.01
2019-01-30T07:18:02.815Z,75.68
2019-01-30T07:19:07.715Z,77.48
2019-01-30T07:20:12.530Z,78.73
2019-01-30T07:21:17.299Z,77.99
2019-01-30T07:22:21.776Z,80.01
2019-01-30T07:23:26.882Z,79.13
2019-01-30T07:24:31.364Z,78.33
2019-01-30T07:25:36.930Z,79.15
2019-01-30T07:26:42.124Z,80.49
2019-01-30T07:27:47.271Z,80.47
2019-01-30T07:28:52.087Z,79.31
2019-01-30T07:29:57.378Z,79.14
2019-01-30T07:31:02.721Z,80.18
2019-01-30T07:32:07.480Z,80.61
2019-01-30T07:33:12.350Z,78.57
2019-01-30T07:34:17.450Z,78.74
2019-01-30T07:35:23.028Z,79.58
2019-01-30T07:36:27.530Z,80.04
2019-01-30T07:37:32.684Z,80.76
2019-01-30T07:38:37.797Z,80.63
2019-01-30T07:39:42.546Z,80.20
2019-01-30T07:40:47.649Z,79.91
2019-01-30T07:41:52.473Z,80.00
2019-01-30T07:42:58.113Z,80.37
2019-01-30T07:44:03.210Z,79.23
2019-01-30T07:45:09.631Z,79.33
2019-01-30T07:46:14.842Z,79.30
2019-01-30T07:47:20.243Z,80.69
2019-01-30T07:48:28.582Z,79.75
2019-01-30T07:49:31.285Z,80.20
2019-01-30T07:50:36.862Z,80.61
2019-01-30T07:51:42.649Z,80.38
2019-01-30T07:52:47.850Z,80.00
2019-01-30T07:53:54.808Z,79.69
2019-01-30T07:55:00.451Z,80.05
2019-01-30T07:56:05.229Z,80.87
2019-01-30T07:57:10.136Z,81.81
2019-01-30T07:58:15.586Z,80.38
2019-01-30T07:59:20.764Z,79.80
2019-01-30T08:00:30.557Z,79.75
2019-01-30T08:01:35.959Z,80.29
2019-01-30T08:02:40.865Z,81.15
2019-01-30T08:03:45.636Z,79.56
2019-01-30T08:04:50.917Z,80.36
2019-01-30T08:05:55.963Z,80.16
2019-01-30T08:07:03.065Z,79.85
2019-01-30T08:08:07.724Z,80.82
2019-01-30T08:09:12.212Z,81.62
2019-01-30T08:10:16.985Z,80.95
2019-01-30T08:11:21.834Z,80.61
2019-01-30T08:12:26.331Z,79.84
2019-01-30T08:13:31.482Z,80.70
2019-01-30T08:14:36.569Z,79.76
2019-01-30T08:15:41.063Z,79.71
2019-01-30T08:16:47.936Z,80.18
2019-01-30T08:17:52.075Z,81.23
2019-01-30T08:18:56.974Z,80.19
2019-01-30T08:20:02.053Z,79.82
2019-01-30T08:21:07.387Z,79.90
2019-01-30T08:22:12.594Z,80.16
2019-01-30T08:23:18.742Z,80.31
2019-01-30T08:24:24.497Z,80.45
2019-01-30T08:25:29.544Z,79.64
2019-01-30T08:26:34.355Z,80.37
2019-01-30T08:27:39.179Z,80.95
2019-01-30T08:28:44.589Z,80.07
2019-01-30T08:29:49.369Z,79.83
2019-01-30T08:30:54.481Z,79.75
2019-01-30T08:31:59.948Z,79.50
2019-01-30T08:33:05.994Z,79.62
2019-01-30T08:34:10.633Z,79.50
2019-01-30T08:35:15.513Z,79.46
2019-01-30T08:36:20.708Z,79.87
2019-01-30T08:37:25.917Z,80.50
2019-01-30T08:38:31.356Z,79.70
2019-01-30T08:39:36.201Z,79.47
2019-01-30T08:40:40.962Z,79.39
2019-01-30T08:41:45.779Z,79.35
2019-01-30T08:42:52.299Z,79.67
2019-01-30T08:43:58.055Z,79.61
2019-01-30T08:45:03.076Z,79.55
2019-01-30T08:46:07.549Z,79.84
2019-01-30T08:47:12.700Z,80.21
2019-01-30T08:48:17.861Z,80.69
2019-01-30T08:49:22.660Z,79.88
2019-01-30T08:50:27.213Z,79.62
2019-01-30T08:51:32.186Z,79.34
2019-01-30T08:52:37.296Z,78.94
2019-01-30T08:53:42.283Z,79.19
2019-01-30T08:54:47.503Z,78.41
2019-01-30T08:55:51.973Z,78.56
2019-01-30T08:56:57.063Z,78.62
2019-01-30T08:58:01.929Z,78.90
2019-01-30T08:59:07.017Z,78.92
2019-01-30T09:00:14.889Z,79.40
2019-01-30T09:01:20.086Z,78.88
2019-01-30T09:02:24.864Z,78.96
2019-01-30T09:03:29.665Z,78.64
2019-01-30T09:04:34.516Z,78.67
2019-01-30T09:05:39.656Z,78.92
2019-01-30T09:06:44.141Z,78.51
2019-01-30T09:07:48.923Z,78.66
2019-01-30T09:08:54.396Z,78.10
2019-01-30T09:09:59.185Z,78.31
2019-01-30T09:11:03.954Z,78.31
2019-01-30T09:12:08.726Z,77.99
2019-01-30T09:13:13.925Z,78.42
2019-01-30T09:14:18.929Z,78.10
2019-01-30T09:15:25.524Z,78.17
2019-01-30T09:16:30.728Z,77.91
2019-01-30T09:17:35.214Z,78.02
2019-01-30T09:18:40.046Z,78.10
2019-01-30T09:19:45.157Z,77.54
2019-01-30T09:20:50.268Z,77.45
2019-01-30T09:21:55.703Z,77.42
2019-01-30T09:23:00.481Z,77.49
2019-01-30T09:24:05.608Z,77.86
2019-01-30T09:25:11.767Z,77.56
2019-01-30T09:26:16.965Z,77.77
2019-01-30T09:27:24.212Z,77.76
2019-01-30T09:28:28.462Z,77.30
2019-01-30T09:29:33.962Z,76.84
2019-01-30T09:30:39.863Z,77.02
2019-01-30T09:31:45.061Z,77.11
2019-01-30T09:32:50.335Z,76.92
2019-01-30T09:33:55.932Z,77.26
2019-01-30T09:35:01.096Z,77.50
2019-01-30T09:36:05.875Z,77.06
2019-01-30T09:37:10.601Z,77.11
2019-01-30T09:38:15.369Z,77.28
2019-01-30T09:39:20.127Z,77.11
2019-01-30T09:40:25.205Z,77.00
2019-01-30T09:41:30.489Z,76.62
2019-01-30T09:42:35.628Z,77.83
2019-01-30T09:43:41.063Z,76.83
2019-01-30T09:44:46.235Z,77.31
2019-01-30T09:45:51.024Z,77.08
2019-01-30T09:46:56.181Z,77.36
2019-01-30T09:48:00.675Z,77.09
2019-01-30T09:49:05.252Z,77.35
2019-01-30T09:50:12.348Z,76.65
2019-01-30T09:51:17.318Z,76.73
2019-01-30T09:52:26.934Z,78.10
2019-01-30T09:53:29.049Z,77.69
2019-01-30T09:54:33.809Z,77.54
2019-01-30T09:55:39.353Z,77.21
2019-01-30T09:56:44.327Z,76.88
2019-01-30T09:57:48.913Z,77.00
2019-01-30T09:58:53.716Z,77.15
2019-01-30T09:59:58.849Z,77.42
2019-01-30T10:01:03.655Z,77.38
2019-01-30T10:02:08.230Z,76.79
2019-01-30T10:03:13.975Z,77.09
2019-01-30T10:04:19.690Z,77.04
2019-01-30T10:05:24.820Z,77.43
2019-01-30T10:06:29.571Z,77.81
2019-01-30T10:07:34.676Z,77.18
2019-01-30T10:08:39.728Z,77.57
2019-01-30T10:09:44.513Z,77.52
2019-01-30T10:10:50.177Z,77.25
2019-01-30T10:11:54.960Z,77.10
2019-01-30T10:12:59.777Z,77.05
2019-01-30T10:14:04.552Z,76.98
2019-01-30T10:15:09.988Z,77.01
2019-01-30T10:16:15.093Z,76.73
2019-01-30T10:17:20.376Z,76.96
2019-01-30T10:18:25.516Z,76.96
2019-01-30T10:19:30.005Z,76.95
2019-01-30T10:20:34.962Z,77.25
2019-01-30T10:21:39.740Z,77.13
2019-01-30T10:22:44.925Z,77.22
2019-01-30T10:23:50.466Z,76.74
2019-01-30T10:24:56.689Z,76.99
2019-01-30T10:26:02.102Z,77.27
2019-01-30T10:27:07.012Z,77.39
2019-01-30T10:28:16.671Z,76.85
2019-01-30T10:29:18.820Z,76.86
2019-01-30T10:30:26.259Z,76.90
2019-01-30T10:31:31.429Z,76.69
2019-01-30T10:32:36.536Z,77.02
2019-01-30T10:33:46.607Z,76.73
2019-01-30T10:34:47.436Z,77.30
2019-01-30T10:35:52.602Z,77.09
2019-01-30T10:36:57.114Z,77.13
2019-01-30T10:38:02.612Z,76.92
2019-01-30T10:39:10.482Z,77.34
2019-01-30T10:40:17.059Z,76.93
2019-01-30T10:41:22.320Z,76.81
2019-01-30T10:42:27.082Z,76.45
2019-01-30T10:43:32.187Z,76.46
2019-01-30T10:44:37.032Z,76.79
2019-01-30T10:45:41.814Z,77.10
2019-01-30T10:46:46.946Z,76.48
2019-01-30T10:47:51.743Z,76.18
2019-01-30T10:48:56.879Z,76.44
2019-01-30T10:50:02.191Z,76.24
2019-01-30T10:51:07.427Z,76.29
2019-01-30T10:52:12.377Z,75.68
2019-01-30T10:53:17.337Z,75.88
2019-01-30T10:54:22.398Z,75.58
2019-01-30T10:55:28.506Z,76.23
2019-01-30T10:56:33.289Z,75.91
2019-01-30T10:57:38.517Z,75.04
2019-01-30T10:58:42.976Z,74.96
2019-01-30T10:59:48.450Z,74.69
2019-01-30T11:00:54.029Z,74.26
2019-01-30T11:01:58.790Z,75.17
2019-01-30T11:03:03.899Z,74.91
2019-01-30T11:04:08.411Z,74.35
2019-01-30T11:05:13.282Z,75.09
2019-01-30T11:06:18.472Z,74.20
2019-01-30T11:07:23.523Z,74.59
2019-01-30T11:08:28.313Z,74.30
2019-01-30T11:09:33.211Z,74.12
2019-01-30T11:10:38.764Z,74.08
2019-01-30T11:11:43.513Z,73.82
2019-01-30T11:12:48.018Z,73.70
2019-01-30T11:13:53.647Z,72.33
2019-01-30T11:14:58.873Z,71.94
2019-01-30T11:16:03.359Z,71.46
2019-01-30T11:17:08.671Z,71.72
2019-01-30T11:18:16.030Z,71.93
2019-01-30T11:19:21.231Z,71.66
2019-01-30T11:20:25.717Z,71.33
2019-01-30T11:21:30.336Z,71.32
2019-01-30T11:22:35.427Z,71.73
2019-01-30T11:23:40.699Z,72.53
2019-01-30T11:24:45.898Z,72.96
2019-01-30T11:25:51.043Z,73.08
2019-01-30T11:26:56.151Z,73.76
2019-01-30T11:28:01.177Z,74.43
2019-01-30T11:29:06.335Z,74.61
2019-01-30T11:30:11.649Z,73.89
2019-01-30T11:31:16.900Z,74.21
2019-01-30T11:32:21.818Z,73.92
2019-01-30T11:33:26.613Z,74.35
2019-01-30T11:34:31.370Z,73.71
2019-01-30T11:35:36.161Z,73.92
2019-01-30T11:36:41.312Z,73.75
2019-01-30T11:37:46.082Z,74.04
2019-01-30T11:38:50.919Z,74.48
2019-01-30T11:39:55.824Z,73.58
2019-01-30T11:41:00.655Z,74.38
2019-01-30T11:42:06.150Z,74.50
2019-01-30T11:43:11.309Z,75.00
2019-01-30T11:44:16.569Z,75.39
2019-01-30T11:45:24.418Z,74.93
2019-01-30T11:46:28.918Z,74.83
2019-01-30T11:47:33.403Z,74.96
2019-01-30T11:48:38.640Z,74.58
2019-01-30T11:49:43.831Z,74.14
2019-01-30T11:50:48.637Z,74.47
2019-01-30T11:51:53.554Z,74.59
2019-01-30T11:52:58.344Z,74.89
2019-01-30T11:54:03.620Z,75.96
2019-01-30T11:55:10.106Z,73.99
2019-01-30T11:56:14.757Z,74.36
2019-01-30T11:57:19.775Z,75.30
2019-01-30T11:58:24.546Z,75.14
2019-01-30T11:59:29.683Z,75.20
2019-01-30T12:00:47.337Z,74.78
2019-01-30T12:01:52.243Z,74.20
2019-01-30T12:02:56.748Z,73.64
2019-01-30T12:04:01.888Z,74.63
2019-01-30T12:05:07.351Z,75.00
2019-01-30T12:06:11.911Z,75.10
2019-01-30T12:07:16.713Z,74.99
2019-01-30T12:08:21.550Z,75.27
2019-01-30T12:09:26.341Z,75.38
2019-01-30T12:10:31.133Z,75.84
2019-01-30T12:11:35.935Z,75.78
2019-01-30T12:12:41.185Z,76.10
2019-01-30T12:13:46.410Z,76.03
2019-01-30T12:14:51.194Z,77.26
2019-01-30T12:15:56.010Z,77.54
2019-01-30T12:17:01.170Z,77.44
2019-01-30T12:18:06.008Z,77.27
2019-01-30T12:19:11.060Z,76.62
2019-01-30T12:20:15.935Z,76.07
2019-01-30T12:21:20.766Z,76.26
2019-01-30T12:22:25.812Z,75.90
2019-01-30T12:23:30.619Z,75.28
2019-01-30T12:24:35.921Z,75.29
2019-01-30T12:25:40.684Z,74.82
2019-01-30T12:26:45.878Z,74.53
2019-01-30T12:27:51.144Z,75.18
2019-01-30T12:28:56.344Z,75.45
2019-01-30T12:30:00.926Z,75.94
2019-01-30T12:31:05.747Z,75.84
2019-01-30T12:32:11.114Z,76.33
2019-01-30T12:33:16.669Z,76.17
2019-01-30T12:34:28.183Z,76.39
2019-01-30T12:35:28.141Z,75.69
2019-01-30T12:36:33.313Z,75.95
2019-01-30T12:37:38.570Z,75.49
2019-01-30T12:38:43.339Z,75.34
2019-01-30T12:39:47.927Z,75.32
2019-01-30T12:40:53.095Z,75.14
2019-01-30T12:41:58.223Z,75.52
2019-01-30T12:43:03.011Z,75.67
2019-01-30T12:44:08.725Z,75.58
2019-01-30T12:45:17.153Z,75.27
2019-01-30T12:46:21.988Z,75.25
2019-01-30T12:47:27.179Z,75.99
2019-01-30T12:48:31.970Z,74.95
2019-01-30T12:49:36.896Z,74.89
2019-01-30T12:50:41.682Z,75.15
2019-01-30T12:51:46.840Z,75.52
2019-01-30T12:52:51.365Z,75.27
2019-01-30T12:53:55.927Z,75.52
2019-01-30T12:55:01.160Z,75.93
2019-01-30T12:56:06.295Z,75.81
2019-01-30T12:57:11.857Z,76.00
2019-01-30T12:58:17.463Z,76.23
2019-01-30T12:59:23.406Z,76.46
2019-01-30T13:00:30.052Z,75.83
2019-01-30T13:01:34.564Z,76.00
2019-01-30T13:02:39.384Z,76.05
2019-01-30T13:03:44.450Z,76.31
2019-01-30T13:04:49.986Z,76.48
2019-01-30T13:05:54.505Z,76.10
2019-01-30T13:06:59.669Z,75.79
2019-01-30T13:08:04.459Z,75.81
2019-01-30T13:09:10.601Z,75.81
2019-01-30T13:10:15.767Z,75.43
2019-01-30T13:11:20.584Z,75.65
2019-01-30T13:12:25.376Z,75.47
2019-01-30T13:13:30.616Z,74.74
2019-01-30T13:14:35.394Z,75.33
2019-01-30T13:15:41.490Z,75.12
2019-01-30T13:16:46.758Z,75.40
2019-01-30T13:17:51.532Z,75.79
2019-01-30T13:18:56.370Z,75.96
2019-01-30T13:20:01.556Z,76.09
2019-01-30T13:21:06.425Z,76.21
2019-01-30T13:22:11.186Z,75.85
2019-01-30T13:23:15.784Z,75.58
2019-01-30T13:24:21.040Z,76.05
2019-01-30T13:25:33.570Z,76.02
2019-01-30T13:26:38.686Z,76.27
2019-01-30T13:27:43.780Z,75.88
2019-01-30T13:28:48.294Z,75.70
2019-01-30T13:29:53.726Z,76.10
2019-01-30T13:30:58.689Z,75.83
2019-01-30T13:32:03.436Z,75.86
2019-01-30T13:33:09.488Z,75.78
2019-01-30T13:34:14.733Z,75.28
2019-01-30T13:35:19.601Z,75.08
2019-01-30T13:36:24.655Z,75.40
2019-01-30T13:37:30.238Z,75.24
2019-01-30T13:38:34.984Z,75.82
2019-01-30T13:39:40.204Z,75.96
2019-01-30T13:40:45.006Z,76.08
2019-01-30T13:41:49.593Z,76.41
2019-01-30T13:42:54.355Z,76.14
2019-01-30T13:43:59.482Z,76.59
2019-01-30T13:45:04.326Z,75.74
2019-01-30T13:46:09.193Z,75.63
2019-01-30T13:47:13.937Z,75.29
2019-01-30T13:48:22.420Z,76.42
2019-01-30T13:49:26.841Z,75.79
2019-01-30T13:50:31.962Z,75.42
2019-01-30T13:51:36.787Z,76.18
2019-01-30T13:52:42.361Z,75.47
2019-01-30T13:53:47.445Z,76.03
2019-01-30T13:54:52.224Z,76.00
2019-01-30T13:55:56.830Z,75.36
2019-01-30T13:57:01.651Z,75.26
2019-01-30T13:58:06.462Z,75.47
2019-01-30T13:59:11.266Z,75.77
2019-01-30T14:00:24.247Z,76.31